Time;durP1;ratioP1;P1;durP2;ratioP2;P2;SDS_P1;SDS_P2;PMS_P1;PMS_P2;Temp;Humidity;BMP_temperature;BMP_pressure;BME280_temperature;BME280_humidity;BME280_pressure;Samples;Min_cycle;Max_cycle;Signal;HPM_P1;HPM_P2
2021/10/25 00:01:43;;;;;;;12.30;9.80;;;3.50;99.90;;;;;;1832043;76;21078;-74
2021/10/25 00:04:09;;;;;;;13.45;10.25;;;3.50;99.90;;;;;;1838489;77;21562;-74
2021/10/25 00:06:38;;;;;;;15.55;11.03;;;3.50;99.90;;;;;;1838725;76;21511;-75
2021/10/25 00:09:03;;;;;;;17.90;10.68;;;3.40;99.90;;;;;;1825217;77;21110;-74
2021/10/25 00:11:29;;;;;;;17.12;11.88;;;3.50;99.90;;;;;;1823372;77;21078;-74
2021/10/25 00:13:55;;;;;;;16.95;10.55;;;3.50;99.90;;;;;;1830589;76;21078;-74
2021/10/25 00:16:21;;;;;;;13.48;10.53;;;3.50;99.90;;;;;;1824640;76;21079;-75
2021/10/25 00:18:47;;;;;;;14.50;10.82;;;3.40;99.90;;;;;;1841455;76;21177;-73
2021/10/25 00:21:13;;;;;;;19.35;10.35;;;3.40;99.90;;;;;;1833077;77;21623;-74
2021/10/25 00:23:39;;;;;;;12.80;9.80;;;3.40;99.90;;;;;;1829678;76;21561;-75
2021/10/25 00:26:06;;;;;;;15.18;10.80;;;3.40;99.90;;;;;;1834942;76;21499;-74
2021/10/25 00:28:32;;;;;;;16.55;11.10;;;3.40;99.90;;;;;;1833455;76;21079;-75
2021/10/25 00:30:58;;;;;;;14.07;10.53;;;3.30;99.90;;;;;;1829031;76;21153;-74
2021/10/25 00:33:24;;;;;;;13.85;10.80;;;3.30;99.90;;;;;;1821299;76;21103;-75
2021/10/25 00:35:52;;;;;;;15.48;10.38;;;3.40;99.90;;;;;;1834481;76;21443;-75
2021/10/25 00:38:19;;;;;;;12.93;10.85;;;3.40;99.90;;;;;;1842861;76;21156;-76
2021/10/25 00:40:45;;;;;;;12.68;9.93;;;3.30;99.90;;;;;;1826361;76;21485;-75
2021/10/25 00:43:11;;;;;;;17.25;10.72;;;3.30;99.90;;;;;;1833117;76;21563;-75
2021/10/25 00:45:37;;;;;;;14.05;10.78;;;3.30;99.90;;;;;;1821801;77;21136;-75
2021/10/25 00:48:03;;;;;;;16.67;10.48;;;3.30;99.90;;;;;;1805895;77;21067;-75
2021/10/25 00:50:29;;;;;;;16.50;10.70;;;3.30;99.90;;;;;;1830053;76;21067;-75
2021/10/25 00:52:55;;;;;;;12.68;10.18;;;3.20;99.90;;;;;;1835877;76;21067;-75
2021/10/25 00:55:21;;;;;;;15.63;10.83;;;3.20;99.90;;;;;;1820594;76;21086;-75
2021/10/25 00:57:47;;;;;;;13.50;10.28;;;3.20;99.90;;;;;;1830403;77;21078;-74
2021/10/25 01:00:14;;;;;;;16.23;11.12;;;3.20;99.90;;;;;;1816124;77;21054;-74
2021/10/25 01:02:40;;;;;;;13.35;11.25;;;3.20;99.90;;;;;;1832173;77;21156;-76
2021/10/25 01:05:06;;;;;;;15.18;11.48;;;3.20;99.90;;;;;;1838082;77;21149;-75
2021/10/25 01:07:33;;;;;;;13.70;10.80;;;3.20;99.90;;;;;;1842345;77;21075;-75
2021/10/25 01:09:59;;;;;;;14.45;10.32;;;3.20;99.90;;;;;;1822582;77;21204;-76
2021/10/25 01:12:26;;;;;;;14.30;11.30;;;3.20;99.90;;;;;;1827571;77;21203;-74
2021/10/25 01:14:52;;;;;;;13.40;10.40;;;3.20;99.90;;;;;;1836635;76;21142;-75
2021/10/25 01:17:18;;;;;;;16.27;11.08;;;3.10;99.90;;;;;;1822686;77;21153;-75
2021/10/25 01:19:44;;;;;;;21.93;11.25;;;3.20;99.90;;;;;;1828909;76;21141;-75
2021/10/25 01:22:10;;;;;;;17.27;11.53;;;3.20;99.90;;;;;;1841054;76;21086;-76
2021/10/25 01:24:37;;;;;;;15.95;10.50;;;3.20;99.90;;;;;;1822444;76;21206;-75
2021/10/25 01:27:03;;;;;;;17.02;11.05;;;3.30;99.90;;;;;;1837442;77;21153;-75
2021/10/25 01:29:29;;;;;;;13.10;10.32;;;3.30;99.90;;;;;;1838064;76;21134;-75
2021/10/25 01:31:55;;;;;;;19.65;11.22;;;3.30;99.90;;;;;;1828789;77;21156;-75
2021/10/25 01:34:22;;;;;;;15.53;11.33;;;3.30;99.90;;;;;;1839136;77;21091;-75
2021/10/25 01:36:48;;;;;;;15.72;11.60;;;3.20;99.90;;;;;;1828819;77;21488;-75
2021/10/25 01:39:14;;;;;;;18.30;11.53;;;3.20;99.90;;;;;;1843385;76;21585;-75
2021/10/25 01:41:40;;;;;;;18.05;11.93;;;3.30;99.90;;;;;;1835964;77;21506;-75
2021/10/25 01:44:06;;;;;;;17.20;11.45;;;3.20;99.90;;;;;;1828483;77;21196;-74
2021/10/25 01:46:32;;;;;;;16.00;10.63;;;3.20;99.90;;;;;;1818264;77;21278;-75
2021/10/25 01:48:59;;;;;;;19.82;10.85;;;3.10;99.90;;;;;;1835854;77;21219;-73
2021/10/25 01:51:25;;;;;;;17.57;10.80;;;3.10;99.90;;;;;;1835424;76;21219;-75
2021/10/25 01:53:51;;;;;;;22.32;10.75;;;3.10;99.90;;;;;;1817951;77;21071;-74
2021/10/25 01:56:17;;;;;;;13.62;10.43;;;3.10;99.90;;;;;;1822687;77;21153;-75
2021/10/25 01:58:44;;;;;;;15.38;10.20;;;3.00;99.90;;;;;;1826437;76;21143;-74
2021/10/25 02:01:10;;;;;;;13.43;10.60;;;3.00;99.90;;;;;;1839640;76;21096;-74
2021/10/25 02:03:36;;;;;;;19.57;10.18;;;3.00;99.90;;;;;;1838204;77;21074;-75
2021/10/25 02:06:03;;;;;;;15.00;11.15;;;3.00;99.90;;;;;;1848585;76;21282;-75
2021/10/25 02:08:29;;;;;;;21.85;11.38;;;3.00;99.90;;;;;;1823189;77;21164;-73
2021/10/25 02:10:55;;;;;;;14.15;10.45;;;3.10;99.90;;;;;;1820329;77;21083;-74
2021/10/25 02:13:21;;;;;;;13.72;10.80;;;3.00;99.90;;;;;;1838462;76;21055;-74
2021/10/25 02:15:47;;;;;;;16.45;10.75;;;3.00;99.90;;;;;;1814181;76;21078;-74
2021/10/25 02:18:13;;;;;;;12.68;10.23;;;2.90;99.90;;;;;;1841675;77;21082;-74
2021/10/25 02:20:40;;;;;;;17.15;11.68;;;2.90;99.90;;;;;;1837375;76;21232;-74
2021/10/25 02:23:06;;;;;;;16.37;11.10;;;2.90;99.90;;;;;;1843800;77;21098;-74
2021/10/25 02:25:33;;;;;;;16.55;11.12;;;2.90;99.90;;;;;;1830299;76;21141;-75
2021/10/25 02:27:59;;;;;;;20.70;12.13;;;2.90;99.90;;;;;;1832404;77;21149;-74
2021/10/25 02:30:25;;;;;;;12.05;10.20;;;2.90;99.90;;;;;;1812183;76;21055;-73
2021/10/25 02:32:51;;;;;;;13.93;10.72;;;3.00;99.90;;;;;;1832829;77;21075;-74
2021/10/25 02:35:18;;;;;;;14.75;10.50;;;2.90;99.90;;;;;;1838312;76;21537;-74
2021/10/25 02:37:44;;;;;;;18.87;11.38;;;2.90;99.90;;;;;;1832898;77;21567;-74
2021/10/25 02:40:10;;;;;;;15.58;10.72;;;2.90;99.90;;;;;;1843515;76;21997;-74
2021/10/25 02:42:36;;;;;;;15.00;10.95;;;2.80;99.90;;;;;;1834709;77;21202;-73
2021/10/25 02:45:02;;;;;;;19.15;10.72;;;2.80;99.90;;;;;;1829337;77;21173;-74
2021/10/25 02:47:28;;;;;;;15.10;11.48;;;2.80;99.90;;;;;;1835594;76;21092;-73
2021/10/25 02:49:54;;;;;;;18.62;10.32;;;2.80;99.90;;;;;;1814311;77;21164;-75
2021/10/25 02:52:20;;;;;;;12.80;10.60;;;2.80;99.90;;;;;;1830742;77;21074;-74
2021/10/25 02:54:48;;;;;;;13.03;10.48;;;2.70;99.90;;;;;;1829993;77;21083;-75
2021/10/25 02:57:14;;;;;;;20.85;12.20;;;2.70;99.90;;;;;;1829607;76;21161;-75
2021/10/25 02:59:41;;;;;;;21.57;11.15;;;2.70;99.90;;;;;;1835355;77;21148;-74
2021/10/25 03:02:07;;;;;;;13.10;10.38;;;2.70;99.90;;;;;;1837913;77;22151;-73
2021/10/25 03:04:33;;;;;;;13.13;10.30;;;2.70;99.90;;;;;;1838810;77;21205;-74
2021/10/25 03:06:59;;;;;;;17.10;10.90;;;2.70;99.90;;;;;;1842538;77;21070;-74
2021/10/25 03:09:25;;;;;;;15.72;10.78;;;2.70;99.90;;;;;;1816485;77;21086;-75
2021/10/25 03:11:52;;;;;;;16.50;10.53;;;2.60;99.90;;;;;;1836320;76;21075;-74
2021/10/25 03:14:18;;;;;;;12.33;9.88;;;2.70;99.90;;;;;;1837239;77;21180;-75
2021/10/25 03:16:44;;;;;;;18.80;10.45;;;2.60;99.90;;;;;;1844062;76;21439;-75
2021/10/25 03:19:10;;;;;;;11.50;9.20;;;2.60;99.90;;;;;;1838894;76;21507;-74
2021/10/25 03:21:36;;;;;;;17.87;10.05;;;2.60;99.90;;;;;;1828129;77;21511;-75
2021/10/25 03:24:03;;;;;;;13.10;9.53;;;2.60;99.90;;;;;;1827400;77;21088;-74
2021/10/25 03:26:29;;;;;;;22.77;10.88;;;2.50;99.90;;;;;;1828513;77;21091;-74
2021/10/25 03:28:55;;;;;;;12.85;9.68;;;2.50;99.90;;;;;;1842744;76;21545;-75
2021/10/25 03:31:22;;;;;;;17.25;9.70;;;2.50;99.90;;;;;;1833949;76;21489;-73
2021/10/25 03:33:48;;;;;;;16.82;10.63;;;2.40;99.90;;;;;;1820614;77;21193;-74
2021/10/25 03:36:16;;;;;;;11.15;9.08;;;2.50;99.90;;;;;;1832137;77;21080;-75
2021/10/25 03:38:43;;;;;;;14.53;9.35;;;2.40;99.90;;;;;;1823169;76;21063;-74
2021/10/25 03:41:19;;;;;;;15.85;10.10;;;2.40;99.90;;;;;;1840067;77;21067;-75
2021/10/25 03:43:49;;;;;;;15.58;10.50;;;2.40;99.90;;;;;;1833956;77;21079;-76
2021/10/25 03:48:45;;;;;;;15.93;11.05;;;2.30;99.90;;;;;;1845289;76;21067;-76
2021/10/25 03:51:11;;;;;;;;;;;2.30;99.90;;;;;;1832547;77;21086;-75
2021/10/25 03:53:48;;;;;;;16.50;11.03;;;2.30;99.90;;;;;;1843803;76;20138;-76
2021/10/25 03:56:15;;;;;;;;;;;2.30;99.90;;;;;;1824151;77;21067;-75
2021/10/25 03:59:00;;;;;;;12.65;10.63;;;2.30;99.90;;;;;;1823852;76;20204;-75
2021/10/25 04:28:18;;;;;;;14.85;11.50;;;2.30;99.90;;;;;;1829776;76;21568;-74
2021/10/25 04:30:41;;;;;;;23.67;11.57;;;2.30;99.90;;;;;;1837034;76;21565;-73
2021/10/25 04:33:07;;;;;;;22.20;11.85;;;2.30;99.90;;;;;;1830822;76;21163;-74
2021/10/25 04:35:33;;;;;;;17.40;11.57;;;2.30;99.90;;;;;;1830875;76;21145;-72
2021/10/25 04:37:59;;;;;;;21.02;13.05;;;2.30;99.90;;;;;;1833547;77;21152;-73
2021/10/25 04:40:25;;;;;;;21.90;13.13;;;2.30;99.90;;;;;;1826498;76;21078;-74
2021/10/25 04:42:52;;;;;;;20.80;12.40;;;2.30;99.90;;;;;;1826028;77;21086;-73
2021/10/25 04:45:19;;;;;;;19.80;11.80;;;2.30;99.90;;;;;;1835425;77;21542;-73
2021/10/25 04:47:45;;;;;;;17.02;12.60;;;2.30;99.90;;;;;;1835592;77;21221;-74
2021/10/25 04:50:11;;;;;;;19.77;13.58;;;2.30;99.90;;;;;;1839319;76;21070;-74
2021/10/25 04:52:37;;;;;;;18.52;13.55;;;2.30;99.90;;;;;;1826018;77;21106;-74
2021/10/25 04:55:03;;;;;;;17.73;13.00;;;2.40;99.90;;;;;;1825727;77;21177;-74
2021/10/25 04:57:30;;;;;;;18.27;12.28;;;2.30;99.90;;;;;;1834220;77;21138;-74
2021/10/25 04:59:56;;;;;;;16.70;12.53;;;2.40;99.90;;;;;;1840698;77;21153;-74
2021/10/25 05:02:22;;;;;;;18.23;12.98;;;2.30;99.90;;;;;;1823774;77;21208;-74
2021/10/25 05:04:48;;;;;;;18.17;13.05;;;2.40;99.90;;;;;;1819175;77;21080;-74
2021/10/25 05:07:14;;;;;;;14.75;11.93;;;2.40;99.90;;;;;;1818361;78;21081;-74
2021/10/25 05:09:40;;;;;;;28.00;12.65;;;2.50;99.90;;;;;;1815863;77;21071;-73
2021/10/25 05:12:13;;;;;;;20.05;13.22;;;2.50;99.90;;;;;;1830456;77;21304;-73
2021/10/25 05:14:34;;;;;;;15.40;11.43;;;2.50;99.90;;;;;;1831145;77;21550;-75
2021/10/25 05:17:00;;;;;;;15.55;12.15;;;2.50;99.90;;;;;;1830768;77;21467;-73
2021/10/25 05:19:27;;;;;;;15.60;12.63;;;2.50;99.90;;;;;;1841175;77;21156;-73
2021/10/25 05:21:53;;;;;;;17.40;12.55;;;2.50;99.90;;;;;;1816956;77;21112;-72
2021/10/25 05:24:19;;;;;;;15.95;11.68;;;2.50;99.90;;;;;;1833015;77;22487;-71
2021/10/25 05:26:45;;;;;;;15.58;11.15;;;2.50;99.90;;;;;;1826835;77;21222;-72
2021/10/25 05:29:11;;;;;;;14.55;11.53;;;2.50;99.90;;;;;;1822059;77;21105;-72
2021/10/25 05:31:38;;;;;;;19.98;12.37;;;2.50;99.90;;;;;;1821203;77;21162;-71
2021/10/25 05:34:04;;;;;;;18.48;11.38;;;2.50;99.90;;;;;;1825919;77;21075;-72
2021/10/25 05:36:31;;;;;;;20.10;12.40;;;2.50;99.90;;;;;;1837291;76;21074;-72
2021/10/25 05:38:57;;;;;;;15.72;11.80;;;2.50;99.90;;;;;;1841607;76;21503;-73
2021/10/25 05:41:24;;;;;;;13.65;11.50;;;2.40;99.90;;;;;;1838676;76;21579;-74
2021/10/25 05:43:50;;;;;;;15.78;11.83;;;2.40;99.90;;;;;;1840485;77;21148;-73
2021/10/25 05:46:17;;;;;;;14.98;11.68;;;2.40;99.90;;;;;;1842575;76;21164;-72
2021/10/25 05:48:43;;;;;;;13.88;10.50;;;2.40;99.90;;;;;;1831070;77;21057;-73
2021/10/25 05:51:10;;;;;;;15.32;12.10;;;2.40;99.90;;;;;;1835333;77;21081;-74
2021/10/25 05:53:36;;;;;;;15.25;11.70;;;2.40;99.90;;;;;;1831451;76;21064;-72
2021/10/25 05:56:02;;;;;;;17.65;12.45;;;2.40;99.90;;;;;;1830140;77;21079;-72
2021/10/25 05:58:29;;;;;;;18.37;12.45;;;2.40;99.90;;;;;;1821778;77;21131;-72
2021/10/25 06:00:58;;;;;;;18.37;12.00;;;2.40;99.90;;;;;;1834561;77;21086;-76
2021/10/25 06:03:25;;;;;;;19.48;12.70;;;2.40;99.90;;;;;;1843798;76;21086;-76
2021/10/25 06:05:51;;;;;;;15.85;10.60;;;2.30;99.90;;;;;;1833603;76;21090;-78
2021/10/25 06:08:18;;;;;;;18.60;11.45;;;2.40;99.90;;;;;;1823816;77;21112;-78
2021/10/25 06:10:44;;;;;;;23.02;12.82;;;2.40;99.90;;;;;;1824187;78;21174;-76
2021/10/25 06:13:17;;;;;;;19.07;12.73;;;2.40;99.90;;;;;;1824661;77;21079;-79
2021/10/25 06:15:40;;;;;;;18.95;12.93;;;2.40;99.90;;;;;;1823010;77;21088;-78
2021/10/25 06:18:10;;;;;;;20.70;13.13;;;2.50;99.90;;;;;;1843194;76;21066;-79
2021/10/25 06:20:34;;;;;;;19.62;13.22;;;2.50;99.90;;;;;;1841393;77;21459;-79
2021/10/25 06:23:00;;;;;;;17.10;13.55;;;2.50;99.90;;;;;;1826534;77;21471;-78
2021/10/25 06:25:26;;;;;;;23.32;13.38;;;2.60;99.90;;;;;;1834192;77;21051;-77
2021/10/25 06:27:52;;;;;;;25.08;12.10;;;2.60;99.90;;;;;;1844461;76;21585;-78
2021/10/25 06:30:18;;;;;;;18.40;12.85;;;2.70;99.90;;;;;;1829068;77;21604;-77
2021/10/25 06:32:44;;;;;;;20.80;13.28;;;2.70;99.90;;;;;;1836427;76;21082;-77
2021/10/25 06:35:13;;;;;;;25.35;14.23;;;2.70;99.90;;;;;;1837074;77;21059;-78
2021/10/25 06:40:21;;;;;;;16.52;11.43;;;2.70;99.90;;;;;;1835278;76;21441;-77
2021/10/25 06:42:47;;;;;;;22.85;12.65;;;2.70;99.90;;;;;;1820181;76;21058;-76
2021/10/25 06:45:19;;;;;;;18.75;13.30;;;2.70;99.90;;;;;;1828183;76;21082;-77
2021/10/25 06:47:44;;;;;;;21.35;13.40;;;2.70;99.90;;;;;;1846363;76;21230;-78
2021/10/25 06:50:10;;;;;;;27.67;14.68;;;2.70;99.90;;;;;;1836703;77;21197;-79
2021/10/25 06:52:36;;;;;;;18.00;13.60;;;2.70;99.90;;;;;;1833421;77;21485;-77
2021/10/25 06:55:02;;;;;;;24.20;14.10;;;2.80;99.90;;;;;;1824436;76;21532;-79
2021/10/25 06:57:28;;;;;;;17.98;13.30;;;2.80;99.90;;;;;;1824557;77;21088;-77
2021/10/25 06:59:55;;;;;;;17.87;11.85;;;3.00;99.90;;;;;;1820485;77;21301;-77
2021/10/25 07:02:21;;;;;;;21.85;13.53;;;3.20;99.90;;;;;;1834714;77;21123;-78
2021/10/25 07:04:48;;;;;;;28.47;14.70;;;3.10;99.90;;;;;;1833946;77;21163;-79
2021/10/25 07:07:16;;;;;;;26.52;14.58;;;3.00;99.90;;;;;;1842267;76;21209;-79
2021/10/25 07:09:43;;;;;;;21.23;13.98;;;2.90;99.90;;;;;;1821268;77;21097;-76
2021/10/25 07:12:10;;;;;;;19.75;13.88;;;2.90;99.90;;;;;;1829691;77;21170;-78
2021/10/25 07:14:37;;;;;;;23.22;14.43;;;3.00;99.90;;;;;;1832362;77;21099;-80
2021/10/25 07:17:18;;;;;;;24.55;14.03;;;3.10;99.90;;;;;;1832579;77;21180;-79
2021/10/25 07:19:50;;;;;;;30.70;13.68;;;3.30;99.90;;;;;;1822822;76;21055;-79
2021/10/25 07:27:41;;;;;;;27.70;13.30;;;3.50;99.90;;;;;;1842408;76;21096;-78
2021/10/25 08:00:30;;;;;;;17.98;11.75;;;5.10;99.90;;;;;;1820910;77;21158;-79
2021/10/25 08:08:17;;;;;;;;;;;5.60;99.90;;;;;;1836254;77;21146;-82
2021/10/25 08:10:32;;;;;;;11.70;8.98;;;5.70;99.90;;;;;;1803209;77;20126;-81
2021/10/25 08:12:55;;;;;;;16.32;9.93;;;6.10;99.90;;;;;;1819462;77;21490;-77
2021/10/25 08:15:33;;;;;;;14.70;9.08;;;6.20;99.90;;;;;;1826322;77;21059;-79
2021/10/25 08:17:57;;;;;;;21.93;9.33;;;6.40;99.90;;;;;;1839233;77;21149;-75
2021/10/25 08:20:21;;;;;;;12.10;8.93;;;6.40;99.90;;;;;;1829850;76;21083;-77
2021/10/25 08:22:47;;;;;;;13.58;8.98;;;6.50;99.90;;;;;;1843181;76;21157;-77
2021/10/25 08:25:13;;;;;;;12.90;8.25;;;6.70;99.90;;;;;;1833750;76;21239;-78
2021/10/25 08:27:42;;;;;;;11.60;7.85;;;6.90;99.90;;;;;;1828866;76;21087;-77
2021/10/25 08:30:08;;;;;;;12.35;8.08;;;7.00;99.90;;;;;;1819667;76;21077;-76
2021/10/25 08:35:31;;;;;;;13.68;7.95;;;7.00;99.90;;;;;;1824995;77;21167;-76
2021/10/25 08:40:32;;;;;;;14.80;8.00;;;7.10;99.90;;;;;;1825761;77;21525;-78
2021/10/25 08:42:58;;;;;;;13.93;7.90;;;7.40;99.90;;;;;;1820659;76;21095;-78
2021/10/25 08:45:33;;;;;;;13.60;7.55;;;7.60;99.90;;;;;;1820849;77;21255;-76
2021/10/25 08:47:57;;;;;;;10.35;7.85;;;7.60;99.90;;;;;;1827308;76;21067;-77
2021/10/25 08:50:23;;;;;;;12.45;7.30;;;7.40;99.90;;;;;;1840667;77;21163;-76
2021/10/25 08:52:50;;;;;;;11.95;8.10;;;7.40;99.90;;;;;;1843391;76;21505;-77
2021/10/25 08:55:19;;;;;;;13.03;7.42;;;7.40;99.90;;;;;;1842127;76;21164;-77
2021/10/25 08:57:45;;;;;;;15.85;7.85;;;7.50;99.90;;;;;;1826088;77;21082;-77
2021/10/25 09:00:11;;;;;;;10.23;7.05;;;7.70;99.90;;;;;;1830411;77;21222;-77
2021/10/25 09:02:37;;;;;;;11.83;7.50;;;7.60;99.90;;;;;;1835073;77;21090;-76
2021/10/25 09:05:04;;;;;;;11.88;7.20;;;7.70;99.90;;;;;;1830534;77;21181;-77
2021/10/25 09:07:30;;;;;;;9.45;6.90;;;7.80;99.90;;;;;;1826369;77;21272;-77
2021/10/25 09:09:56;;;;;;;10.93;7.17;;;7.80;99.90;;;;;;1837940;76;21161;-76
2021/10/25 09:12:22;;;;;;;21.12;7.33;;;7.90;99.90;;;;;;1823383;77;21162;-77
2021/10/25 09:14:52;;;;;;;12.43;7.60;;;7.90;99.90;;;;;;1837937;77;21086;-77
2021/10/25 09:17:17;;;;;;;11.48;8.13;;;7.90;99.90;;;;;;1819417;77;21165;-75
2021/10/25 09:19:46;;;;;;;11.85;7.53;;;7.90;99.90;;;;;;1835802;76;21569;-75
2021/10/25 09:22:11;;;;;;;14.23;8.00;;;8.00;99.90;;;;;;1838671;76;21189;-79
2021/10/25 09:24:37;;;;;;;10.75;7.37;;;8.10;99.90;;;;;;1818452;76;21080;-79
2021/10/25 09:27:05;;;;;;;16.05;7.90;;;8.10;99.90;;;;;;1824452;77;21171;-79
2021/10/25 09:29:33;;;;;;;14.28;7.87;;;8.00;99.90;;;;;;1819527;77;21076;-79
2021/10/25 09:32:07;;;;;;;10.75;7.67;;;8.10;99.90;;;;;;1830314;76;21102;-79
2021/10/25 09:34:28;;;;;;;13.18;8.43;;;8.30;99.90;;;;;;1826482;77;21188;-79
2021/10/25 09:37:00;;;;;;;16.17;6.75;;;8.30;99.90;;;;;;1832695;76;21116;-78
2021/10/25 09:39:37;;;;;;;10.10;7.12;;;8.50;99.90;;;;;;1826195;77;21091;-79
2021/10/25 09:50:01;;;;;;;11.70;6.30;;;9.30;99.90;;;;;;1833398;77;21494;-78
2021/10/25 09:52:29;;;;;;;10.90;6.47;;;9.40;99.90;;;;;;1835058;76;21153;-79
2021/10/25 09:54:55;;;;;;;13.35;6.40;;;9.40;99.90;;;;;;1845319;76;21553;-79
2021/10/25 09:57:24;;;;;;;9.70;6.28;;;9.50;99.90;;;;;;1842673;76;21480;-79
2021/10/25 09:59:49;;;;;;;8.95;6.58;;;9.70;99.90;;;;;;1815370;77;21108;-78
2021/10/25 10:02:15;;;;;;;16.07;7.25;;;10.00;99.90;;;;;;1835378;76;21153;-79
2021/10/25 10:04:45;;;;;;;9.30;5.60;;;10.20;99.90;;;;;;1835166;77;21161;-80
2021/10/25 10:07:12;;;;;;;6.92;6.08;;;10.30;99.90;;;;;;1815544;77;21163;-79
2021/10/25 10:09:38;;;;;;;8.78;6.08;;;10.30;99.90;;;;;;1840264;77;21150;-80
2021/10/25 10:14:51;;;;;;;11.18;5.33;;;10.80;99.90;;;;;;1827037;77;21481;-80
2021/10/25 10:17:17;;;;;;;10.55;5.97;;;10.80;99.90;;;;;;1822190;77;21065;-79
2021/10/25 10:19:44;;;;;;;8.15;5.65;;;10.90;99.90;;;;;;1829553;77;21095;-79
2021/10/25 10:22:10;;;;;;;9.23;5.90;;;11.40;99.90;;;;;;1832708;77;21173;-79
2021/10/25 10:24:37;;;;;;;7.95;5.87;;;11.90;99.90;;;;;;1823503;77;21247;-80
2021/10/25 10:27:03;;;;;;;7.95;5.45;;;12.10;99.90;;;;;;1827129;77;21296;-79
2021/10/25 10:29:29;;;;;;;11.73;5.90;;;12.90;99.90;;;;;;1822945;77;21173;-79
2021/10/25 10:31:56;;;;;;;9.35;5.40;;;12.50;99.90;;;;;;1847151;76;21492;-79
2021/10/25 10:34:22;;;;;;;10.23;5.33;;;12.20;99.90;;;;;;1831691;77;21469;-78
2021/10/25 10:36:48;;;;;;;11.48;6.00;;;12.10;99.90;;;;;;1815528;77;21492;-79
2021/10/25 10:39:15;;;;;;;12.60;5.47;;;11.80;99.90;;;;;;1834784;77;21557;-79
2021/10/25 10:41:42;;;;;;;8.73;6.00;;;11.70;99.90;;;;;;1833944;77;21216;-79
2021/10/25 10:44:08;;;;;;;9.05;6.42;;;11.70;99.90;;;;;;1845973;76;21130;-79
2021/10/25 10:46:34;;;;;;;9.95;6.25;;;11.70;99.90;;;;;;1835472;77;21075;-79
2021/10/25 10:49:00;;;;;;;17.52;7.03;;;11.70;99.90;;;;;;1822303;77;21073;-79
2021/10/25 10:51:26;;;;;;;10.88;5.60;;;11.90;99.90;;;;;;1827654;76;21139;-80
2021/10/25 10:53:57;;;;;;;11.15;6.55;;;12.20;99.90;;;;;;1859289;74;21154;-80
2021/10/25 10:56:26;;;;;;;8.83;5.50;;;12.30;99.90;;;;;;1862222;75;21076;-77
2021/10/25 11:01:32;;;;;;;9.05;6.28;;;12.30;99.90;;;;;;1858178;75;21457;-77
2021/10/25 11:03:59;;;;;;;11.65;5.75;;;12.40;99.90;;;;;;1868267;75;21471;-76
2021/10/25 11:06:25;;;;;;;8.13;5.22;;;12.90;99.90;;;;;;1869267;75;21228;-74
2021/10/25 11:08:51;;;;;;;8.93;5.83;;;13.20;99.90;;;;;;1868911;76;21168;-75
2021/10/25 11:11:18;;;;;;;8.28;4.75;;;13.00;99.90;;;;;;1878283;75;21079;-75
2021/10/25 11:13:50;;;;;;;8.43;5.40;;;13.70;99.90;;;;;;1878360;74;21122;-75
2021/10/25 11:18:43;;;;;;;13.30;4.50;;;15.10;99.90;;;;;;1874679;75;21524;-75
2021/10/25 11:21:09;;;;;;;6.42;4.85;;;15.70;99.90;;;;;;1874031;74;21496;-77
2021/10/25 11:23:36;;;;;;;7.30;4.80;;;16.10;99.90;;;;;;1865610;74;21084;-78
2021/10/25 11:26:02;;;;;;;6.33;4.28;;;16.40;99.90;;;;;;1869827;74;21099;-77
2021/10/25 11:28:28;;;;;;;9.28;4.92;;;16.30;99.90;;;;;;1884265;76;21471;-77
2021/10/25 11:30:55;;;;;;;8.33;4.92;;;16.90;99.90;;;;;;1867097;75;21603;-77
2021/10/25 11:33:21;;;;;;;9.35;4.58;;;17.20;99.90;;;;;;1867411;74;21549;-78
2021/10/25 11:35:48;;;;;;;6.95;4.60;;;17.60;99.90;;;;;;1869555;75;21425;-77
2021/10/25 11:38:14;;;;;;;12.10;4.75;;;17.20;99.90;;;;;;1861349;74;21056;-76
2021/10/25 11:40:40;;;;;;;6.47;4.30;;;17.30;99.90;;;;;;1871070;75;21144;-77
2021/10/25 11:43:06;;;;;;;6.10;3.83;;;17.30;99.90;;;;;;1858202;76;21121;-77
2021/10/25 11:45:32;;;;;;;5.70;4.17;;;17.90;99.90;;;;;;1862817;74;21073;-77
2021/10/25 11:47:58;;;;;;;4.12;3.47;;;18.20;99.90;;;;;;1883234;76;21183;-77
2021/10/25 11:50:25;;;;;;;7.90;3.50;;;18.20;99.90;;;;;;1877924;75;21049;-76
2021/10/25 11:52:52;;;;;;;4.10;3.42;;;18.10;99.90;;;;;;1871568;75;21087;-75
2021/10/25 11:55:18;;;;;;;6.62;3.55;;;17.80;99.90;;;;;;1881767;74;21480;-73
2021/10/25 11:57:45;;;;;;;7.30;3.60;;;18.10;99.90;;;;;;1882137;75;21560;-74
2021/10/25 12:00:11;;;;;;;7.12;3.35;;;18.00;99.90;;;;;;1866775;74;21550;-73
2021/10/25 12:02:37;;;;;;;5.35;3.70;;;18.50;99.90;;;;;;1866976;75;21161;-74
2021/10/25 12:05:03;;;;;;;2.87;2.55;;;18.80;99.90;;;;;;1856410;76;21151;-73
2021/10/25 12:07:29;;;;;;;6.50;3.37;;;19.40;99.90;;;;;;1879569;74;21080;-74
2021/10/25 12:09:55;;;;;;;6.20;3.92;;;19.30;99.90;;;;;;1882609;75;21049;-74
2021/10/25 12:12:21;;;;;;;4.92;3.02;;;19.00;99.90;;;;;;1882198;75;21076;-75
2021/10/25 12:14:47;;;;;;;9.18;3.30;;;19.10;99.90;;;;;;1878454;75;21171;-75
2021/10/25 12:17:21;;;;;;;7.40;2.67;;;19.40;99.90;;;;;;1860010;75;21508;-74
2021/10/25 12:19:46;;;;;;;5.17;2.72;;;20.30;99.90;;;;;;1879293;75;21163;-75
2021/10/25 12:22:12;;;;;;;3.60;2.90;;;20.20;99.90;;;;;;1866803;75;21164;-75
2021/10/25 12:24:38;;;;;;;5.25;3.02;;;20.50;99.90;;;;;;1842787;76;21130;-75
2021/10/25 12:27:06;;;;;;;5.10;3.17;;;20.50;99.90;;;;;;1876856;76;21162;-76
2021/10/25 12:29:32;;;;;;;4.53;2.67;;;20.30;99.90;;;;;;1874811;75;21094;-75
2021/10/25 12:31:58;;;;;;;4.85;2.77;;;20.20;99.90;;;;;;1881854;74;21167;-75
2021/10/25 12:34:24;;;;;;;2.80;2.10;;;19.60;99.90;;;;;;1864673;75;21149;-75
2021/10/25 12:36:50;;;;;;;2.27;2.08;;;19.10;99.90;;;;;;1870990;74;21134;-75
2021/10/25 12:39:17;;;;;;;3.08;2.08;;;18.60;99.90;;;;;;1862583;75;21078;-76
2021/10/25 12:41:43;;;;;;;3.95;2.17;;;18.80;99.90;;;;;;1878104;75;21141;-75
2021/10/25 12:44:10;;;;;;;2.45;2.10;;;18.80;99.90;;;;;;1871556;74;21251;-75
2021/10/25 12:46:36;;;;;;;3.33;2.25;;;18.70;99.90;;;;;;1883439;75;21448;-76
2021/10/25 12:49:02;;;;;;;7.20;2.10;;;19.10;99.90;;;;;;1874498;74;21499;-74
2021/10/25 12:51:29;;;;;;;3.02;2.62;;;18.60;99.90;;;;;;1858410;75;21478;-75
2021/10/25 12:53:55;;;;;;;7.05;2.27;;;18.30;99.90;;;;;;1877845;74;21582;-76
2021/10/25 12:56:21;;;;;;;6.33;2.35;;;18.00;99.90;;;;;;1879444;74;21495;-75
2021/10/25 12:58:47;;;;;;;4.75;2.20;;;18.10;99.90;;;;;;1870972;75;21691;-76
2021/10/25 13:01:14;;;;;;;5.70;2.40;;;18.20;99.90;;;;;;1887365;74;21083;-75
2021/10/25 13:03:40;;;;;;;4.90;2.42;;;18.10;99.90;;;;;;1883956;74;21079;-75
2021/10/25 13:06:10;;;;;;;6.72;3.27;;;18.20;99.90;;;;;;1887032;74;21052;-76
2021/10/25 13:08:36;;;;;;;6.10;2.77;;;18.20;99.90;;;;;;1879638;75;21061;-76
2021/10/25 13:11:02;;;;;;;7.45;3.20;;;18.40;99.90;;;;;;1886013;75;21087;-76
2021/10/25 13:13:32;;;;;;;7.28;3.17;;;18.60;99.90;;;;;;1868191;76;21476;-74
2021/10/25 13:15:56;;;;;;;7.95;2.95;;;18.90;99.90;;;;;;1870551;75;21076;-76
2021/10/25 13:18:22;;;;;;;4.03;2.55;;;19.50;99.90;;;;;;1869404;76;21063;-75
2021/10/25 13:20:48;;;;;;;4.72;2.90;;;20.10;99.90;;;;;;1865838;75;21072;-76
2021/10/25 13:23:15;;;;;;;7.53;2.98;;;20.50;99.90;;;;;;1865992;74;21085;-76
2021/10/25 13:25:42;;;;;;;5.10;2.58;;;21.60;99.90;;;;;;1881573;75;21191;-75
2021/10/25 13:28:08;;;;;;;4.10;2.52;;;21.80;98.20;;;;;;1880042;75;21110;-75
2021/10/25 13:30:34;;;;;;;5.28;2.72;;;21.40;98.80;;;;;;1866289;75;21149;-75
2021/10/25 13:33:01;;;;;;;3.92;2.30;;;21.40;99.20;;;;;;1878208;74;21540;-76
2021/10/25 13:35:27;;;;;;;5.00;1.80;;;21.80;97.40;;;;;;1872418;76;21165;-74
2021/10/25 13:37:58;;;;;;;3.92;2.00;;;22.00;94.70;;;;;;1870996;75;21195;-75
2021/10/25 13:40:22;;;;;;;2.58;1.82;;;22.40;94.90;;;;;;1880959;74;21193;-75
2021/10/25 13:42:48;;;;;;;5.47;2.33;;;22.50;93.30;;;;;;1871147;75;21061;-76
2021/10/25 13:45:14;;;;;;;2.95;1.77;;;23.20;94.30;;;;;;1865918;76;21096;-75
2021/10/25 13:47:41;;;;;;;4.78;1.87;;;23.00;93.90;;;;;;1872601;75;21155;-76
2021/10/25 13:50:07;;;;;;;2.77;1.70;;;22.70;92.50;;;;;;1870370;75;21080;-75
2021/10/25 13:52:35;;;;;;;2.42;1.82;;;22.60;93.30;;;;;;1876692;76;21053;-75
2021/10/25 13:55:01;;;;;;;1.95;1.60;;;22.90;92.30;;;;;;1878090;74;21642;-75
2021/10/25 13:57:30;;;;;;;6.90;1.87;;;22.80;90.80;;;;;;1879612;74;21223;-76
2021/10/25 13:59:55;;;;;;;2.52;1.62;;;22.80;90.20;;;;;;1878897;74;21509;-76
2021/10/25 14:02:28;;;;;;;3.42;1.72;;;23.20;88.30;;;;;;1871059;74;21080;-75
2021/10/25 14:04:52;;;;;;;2.67;1.40;;;23.20;86.70;;;;;;1876295;75;21103;-75
2021/10/25 14:07:36;;;;;;;2.92;1.60;;;22.90;85.20;;;;;;1878981;75;21056;-75
2021/10/25 14:10:41;;;;;;;1.40;1.20;;;23.00;83.70;;;;;;1870019;74;21172;-74
2021/10/25 14:12:37;;;;;;;1.70;1.30;;;22.80;81.50;;;;;;1858933;74;21054;-74
2021/10/25 14:17:37;;;;;;;4.97;1.45;;;22.30;83.60;;;;;;1878098;75;21159;-75